createdAt,value
2023-04-24T00:00:12.168Z,8.40
2023-04-24T00:03:41.364Z,8.36
2023-04-24T00:07:29.437Z,8.32
2023-04-24T00:11:23.515Z,8.27
2023-04-24T00:15:11.423Z,8.24
2023-04-24T00:18:59.437Z,8.23
2023-04-24T00:22:47.853Z,8.21
2023-04-24T00:26:35.816Z,8.15
2023-04-24T00:30:23.804Z,7.96
2023-04-24T00:34:11.762Z,7.75
2023-04-24T00:37:59.696Z,7.59
2023-04-24T00:41:49.751Z,7.59
2023-04-24T00:45:37.702Z,7.63
2023-04-24T00:49:25.719Z,7.67
2023-04-24T00:53:13.700Z,7.70
2023-04-24T00:57:01.762Z,7.73
2023-04-24T01:00:49.850Z,7.77
2023-04-24T01:04:39.067Z,7.75
2023-04-24T01:08:27.265Z,7.63
2023-04-24T01:12:06.545Z,7.51
2023-04-24T01:15:31.058Z,7.42
2023-04-24T01:18:53.727Z,7.42
2023-04-24T01:21:41.133Z,7.47
2023-04-24T01:25:09.895Z,7.51
2023-04-24T01:28:43.709Z,7.56
2023-04-24T01:32:23.315Z,7.60
2023-04-24T01:35:46.214Z,7.64
2023-04-24T01:39:26.533Z,7.66
2023-04-24T01:42:41.554Z,7.66
2023-04-24T01:45:58.517Z,7.67
2023-04-24T01:49:48.563Z,7.58
2023-04-24T01:53:36.493Z,7.51
2023-04-24T01:57:24.409Z,7.49
2023-04-24T02:01:12.574Z,7.39
2023-04-24T02:05:00.563Z,7.32
2023-04-24T02:08:48.528Z,7.32
2023-04-24T02:12:36.529Z,7.31
2023-04-24T02:16:24.565Z,7.28
2023-04-24T02:20:16.128Z,7.27
2023-04-24T02:24:04.063Z,7.25
2023-04-24T02:27:52.053Z,7.20
2023-04-24T02:31:40.175Z,7.12
2023-04-24T02:35:28.193Z,7.13
2023-04-24T02:39:16.311Z,7.14
2023-04-24T02:43:05.651Z,7.15
2023-04-24T02:46:55.029Z,7.14
2023-04-24T02:50:43.134Z,7.14
2023-04-24T02:54:31.127Z,7.15
2023-04-24T02:58:19.083Z,7.13
2023-04-24T03:02:10.969Z,7.12
2023-04-24T03:05:59.082Z,7.11
2023-04-24T03:09:49.544Z,7.08
2023-04-24T03:13:37.532Z,7.06
2023-04-24T03:17:25.515Z,7.00
2023-04-24T03:21:13.511Z,6.87
2023-04-24T03:25:03.947Z,6.82
2023-04-24T03:28:51.874Z,6.80
2023-04-24T03:32:41.076Z,6.82
2023-04-24T03:36:29.118Z,6.84
2023-04-24T03:40:17.109Z,6.89
2023-04-24T03:43:59.136Z,6.96
2023-04-24T03:47:47.119Z,7.05
2023-04-24T03:51:35.034Z,7.33
2023-04-24T03:55:31.397Z,8.06
2023-04-24T03:59:19.334Z,9.03
2023-04-24T04:03:07.565Z,10.09
2023-04-24T04:06:55.775Z,11.00
2023-04-24T04:10:45.369Z,11.94
2023-04-24T04:14:33.295Z,12.91
2023-04-24T04:18:21.225Z,13.87
2023-04-24T04:22:09.294Z,14.71
2023-04-24T04:26:03.412Z,15.38
2023-04-24T15:22:23.891Z,22.05
2023-04-24T15:24:50.843Z,22.59
2023-04-24T15:27:17.772Z,22.97
2023-04-24T15:29:44.903Z,23.39
2023-04-24T15:32:11.899Z,23.73
2023-04-24T15:34:38.923Z,24.00
2023-04-24T15:37:06.386Z,24.13
2023-04-24T15:39:33.447Z,24.18
2023-04-24T15:42:01.293Z,24.14
2023-04-24T15:44:28.259Z,24.04
2023-04-24T15:46:56.390Z,23.98
2023-04-24T15:49:23.379Z,23.83
2023-04-24T15:51:50.364Z,23.55
2023-04-24T15:54:17.326Z,23.19
2023-04-24T15:56:45.551Z,22.82
2023-04-24T15:59:14.436Z,22.43
2023-04-24T16:01:41.476Z,22.04
2023-04-24T16:04:08.724Z,21.66
2023-04-24T16:06:36.078Z,21.31
2023-04-24T16:09:03.762Z,21.00
2023-04-24T16:11:32.889Z,20.74
2023-04-24T16:13:59.990Z,20.51
2023-04-24T16:16:27.995Z,20.31
2023-04-24T16:18:55.586Z,20.13
2023-04-24T16:21:22.576Z,19.95
2023-04-24T16:23:49.715Z,19.82
2023-04-24T16:26:16.727Z,19.71
2023-04-24T16:28:43.718Z,19.61
2023-04-24T16:31:11.033Z,19.50
2023-04-24T16:33:37.982Z,19.38
2023-04-24T16:36:07.347Z,19.25
2023-04-24T16:38:36.004Z,19.14
2023-04-24T16:41:03.010Z,19.04
2023-04-24T16:43:30.042Z,18.94
2023-04-24T16:46:00.786Z,18.83
2023-04-24T16:48:27.831Z,18.73
2023-04-24T16:50:54.787Z,18.62
2023-04-24T16:53:21.805Z,18.50
2023-04-24T16:55:51.250Z,18.41
2023-04-24T16:58:21.882Z,18.31
2023-04-24T17:00:48.947Z,18.22
2023-04-24T17:03:17.811Z,18.13
2023-04-24T17:05:44.957Z,18.04
2023-04-24T17:08:11.900Z,17.95
2023-04-24T17:10:38.914Z,17.86
2023-04-24T17:13:05.870Z,17.76
2023-04-24T17:15:32.905Z,17.68
2023-04-24T17:18:00.204Z,17.58
2023-04-24T17:20:29.815Z,17.48
2023-04-24T17:22:57.407Z,17.36
2023-04-24T17:25:24.383Z,17.23
2023-04-24T17:27:51.356Z,17.14
2023-04-24T17:30:18.498Z,17.03
2023-04-24T17:32:45.762Z,16.90
2023-04-24T17:35:13.120Z,16.77
2023-04-24T17:37:40.071Z,16.66
2023-04-24T17:40:08.332Z,16.56
2023-04-24T17:42:38.381Z,16.42
2023-04-24T17:45:06.007Z,16.31
2023-04-24T17:47:33.178Z,16.23
2023-04-24T17:50:00.197Z,16.16
2023-04-24T17:52:27.163Z,16.07
2023-04-24T17:54:54.192Z,15.96
2023-04-24T17:57:21.198Z,15.88
2023-04-24T17:59:48.376Z,15.79
2023-04-24T18:02:15.866Z,15.71
2023-04-24T18:04:43.541Z,15.60
2023-04-24T18:07:10.886Z,15.50
2023-04-24T18:09:38.468Z,15.41
2023-04-24T18:12:05.934Z,15.33
2023-04-24T18:14:35.701Z,15.29
2023-04-24T18:17:03.125Z,15.27
2023-04-24T18:19:30.130Z,15.26
2023-04-24T18:21:58.162Z,15.23
2023-04-24T18:24:25.278Z,15.21
2023-04-24T18:26:52.354Z,15.20
2023-04-24T18:29:19.480Z,15.18
2023-04-24T18:31:46.898Z,15.16
2023-04-24T18:34:13.970Z,15.16
2023-04-24T18:36:40.986Z,15.16
2023-04-24T18:39:08.054Z,15.12
2023-04-24T18:41:35.463Z,15.07
2023-04-24T18:44:02.554Z,15.01
2023-04-24T18:46:31.759Z,14.93
2023-04-24T18:48:58.750Z,14.85
2023-04-24T18:51:26.350Z,14.78
2023-04-24T18:53:53.352Z,14.67
2023-04-24T18:56:20.829Z,14.57
2023-04-24T18:58:48.520Z,14.50
2023-04-24T19:01:15.643Z,14.41
2023-04-24T19:03:42.775Z,14.33
2023-04-24T19:06:09.826Z,14.24
2023-04-24T19:08:38.691Z,14.16
2023-04-24T19:11:05.820Z,14.06
2023-04-24T19:13:32.859Z,13.96
2023-04-24T19:15:59.971Z,13.91
2023-04-24T19:18:27.859Z,13.88
2023-04-24T19:20:55.929Z,13.82
2023-04-24T19:23:22.929Z,13.71
2023-04-24T19:25:49.950Z,13.63
2023-04-24T19:28:16.889Z,13.58
2023-04-24T19:30:43.843Z,13.51
2023-04-24T19:33:10.908Z,13.42
2023-04-24T19:35:39.203Z,13.34
2023-04-24T19:38:06.150Z,13.29
2023-04-24T19:40:33.194Z,13.24
2023-04-24T19:43:00.274Z,13.16
2023-04-24T19:45:27.240Z,13.11
2023-04-24T19:47:56.632Z,13.07
2023-04-24T19:50:24.481Z,13.04
2023-04-24T19:52:51.634Z,12.98
2023-04-24T19:55:18.781Z,12.91
2023-04-24T19:57:45.726Z,12.84
2023-04-24T20:00:13.223Z,12.76
2023-04-24T20:02:40.338Z,12.70
2023-04-24T20:05:08.143Z,12.67
2023-04-24T20:07:35.492Z,12.61
2023-04-24T20:10:02.476Z,12.58
2023-04-24T20:12:29.400Z,12.56
2023-04-24T20:14:56.492Z,12.55
2023-04-24T20:17:23.470Z,12.54
2023-04-24T20:19:50.446Z,12.52
2023-04-24T20:22:17.551Z,12.49
2023-04-24T20:24:44.671Z,12.46
2023-04-24T20:27:13.374Z,12.41
2023-04-24T20:29:40.336Z,12.36
2023-04-24T20:32:07.268Z,12.28
2023-04-24T20:34:34.292Z,12.24
2023-04-24T20:37:04.115Z,12.21
2023-04-24T20:39:31.395Z,12.20
2023-04-24T20:41:58.953Z,12.18
2023-04-24T20:44:25.920Z,12.15
2023-04-24T20:46:52.935Z,12.15
2023-04-24T20:49:20.047Z,12.15
2023-04-24T20:51:47.226Z,12.11
2023-04-24T20:54:14.209Z,12.07
2023-04-24T20:56:41.295Z,12.04
2023-04-24T20:59:08.240Z,12.01
2023-04-24T21:01:35.647Z,11.96
2023-04-24T21:04:02.740Z,11.91
2023-04-24T21:06:29.791Z,11.89
2023-04-24T21:08:56.779Z,11.86
2023-04-24T21:11:23.794Z,11.82
2023-04-24T21:13:51.071Z,11.78
2023-04-24T21:16:18.236Z,11.74
2023-04-24T21:18:45.495Z,11.69
2023-04-24T21:21:12.486Z,11.65
2023-04-24T21:23:39.584Z,11.62
2023-04-24T21:26:06.881Z,11.59
2023-04-24T21:28:33.862Z,11.57
2023-04-24T21:31:00.865Z,11.55
2023-04-24T21:33:29.050Z,11.49
2023-04-24T21:35:56.935Z,11.41
2023-04-24T21:38:25.463Z,11.35
2023-04-24T21:40:52.515Z,11.30
2023-04-24T21:43:25.334Z,11.25
2023-04-24T21:45:57.805Z,11.20
2023-04-24T21:48:24.835Z,11.18
2023-04-24T21:50:51.790Z,11.14
2023-04-24T21:53:18.749Z,11.11
2023-04-24T21:55:45.927Z,11.07
2023-04-24T21:58:13.023Z,11.03
2023-04-24T22:00:40.039Z,10.99
2023-04-24T22:03:07.128Z,10.94
2023-04-24T22:05:34.234Z,10.90
2023-04-24T22:08:02.139Z,10.89
2023-04-24T22:10:29.512Z,10.87
2023-04-24T22:12:56.596Z,10.86
2023-04-24T22:15:23.566Z,10.83
2023-04-24T22:17:52.781Z,10.72
2023-04-24T22:20:20.357Z,10.61
2023-04-24T22:22:48.364Z,10.55
2023-04-24T22:25:15.334Z,10.50
2023-04-24T22:27:42.334Z,10.47
2023-04-24T22:30:10.246Z,10.45
2023-04-24T22:32:37.484Z,10.44
2023-04-24T22:35:04.724Z,10.43
2023-04-24T22:37:31.660Z,10.39
2023-04-24T22:40:01.239Z,10.28
2023-04-24T22:42:29.184Z,10.22
2023-04-24T22:44:56.242Z,10.15
2023-04-24T22:47:23.192Z,10.12
2023-04-24T22:49:50.133Z,10.06
2023-04-24T22:52:17.230Z,10.01
2023-04-24T22:54:44.216Z,9.96
2023-04-24T22:57:12.562Z,9.94
2023-04-24T22:59:39.625Z,9.91
2023-04-24T23:02:07.458Z,9.89
2023-04-24T23:04:34.629Z,9.88
2023-04-24T23:07:01.694Z,9.87
2023-04-24T23:09:28.612Z,9.87
2023-04-24T23:11:55.722Z,9.87
2023-04-24T23:14:24.754Z,9.86
2023-04-24T23:16:51.724Z,9.83
2023-04-24T23:19:18.701Z,9.77
2023-04-24T23:21:45.769Z,9.68
2023-04-24T23:27:09.265Z,9.44
2023-04-24T23:29:36.242Z,9.35
2023-04-24T23:32:04.068Z,9.30
2023-04-24T23:34:32.460Z,9.24
2023-04-24T23:36:59.457Z,9.20
2023-04-24T23:39:26.406Z,9.16
2023-04-24T23:41:53.677Z,9.14
2023-04-24T23:44:20.722Z,9.13
2023-04-24T23:46:47.616Z,9.15
2023-04-24T23:49:15.180Z,9.18
2023-04-24T23:51:42.132Z,9.23
2023-04-24T23:54:09.095Z,9.25
2023-04-24T23:56:38.110Z,9.21
2023-04-24T23:59:05.138Z,9.14
